sensor_id;sensor_type;location;lat;lon;timestamp;P1;durP1;ratioP1;P2;durP2;ratioP2
73859;SDS011;62197;51.632;13.700;2023-04-24T00:00:11;6.25;;;3.63;;
73859;SDS011;62197;51.632;13.700;2023-04-24T00:02:39;6.43;;;3.50;;
73859;SDS011;62197;51.632;13.700;2023-04-24T00:05:05;6.55;;;4.45;;
73859;SDS011;62197;51.632;13.700;2023-04-24T00:07:32;7.25;;;3.70;;
73859;SDS011;62197;51.632;13.700;2023-04-24T00:09:58;5.82;;;4.10;;
73859;SDS011;62197;51.632;13.700;2023-04-24T00:12:23;7.70;;;4.20;;
73859;SDS011;62197;51.632;13.700;2023-04-24T00:14:49;5.85;;;4.03;;
73859;SDS011;62197;51.632;13.700;2023-04-24T00:17:14;7.50;;;3.92;;
73859;SDS011;62197;51.632;13.700;2023-04-24T00:19:39;5.32;;;3.95;;
73859;SDS011;62197;51.632;13.700;2023-04-24T00:22:05;7.22;;;4.22;;
73859;SDS011;62197;51.632;13.700;2023-04-24T00:24:30;6.22;;;4.05;;
73859;SDS011;62197;51.632;13.700;2023-04-24T00:26:56;7.32;;;3.88;;
73859;SDS011;62197;51.632;13.700;2023-04-24T00:29:21;6.85;;;4.05;;
73859;SDS011;62197;51.632;13.700;2023-04-24T00:31:46;6.78;;;4.15;;
73859;SDS011;62197;51.632;13.700;2023-04-24T00:34:12;6.28;;;4.10;;
73859;SDS011;62197;51.632;13.700;2023-04-24T00:36:37;13.70;;;3.92;;
73859;SDS011;62197;51.632;13.700;2023-04-24T00:39:02;5.63;;;3.63;;
73859;SDS011;62197;51.632;13.700;2023-04-24T00:41:28;5.82;;;3.63;;
73859;SDS011;62197;51.632;13.700;2023-04-24T00:43:54;5.60;;;3.75;;
73859;SDS011;62197;51.632;13.700;2023-04-24T00:46:20;6.32;;;4.00;;
73859;SDS011;62197;51.632;13.700;2023-04-24T00:48:46;8.00;;;4.25;;
73859;SDS011;62197;51.632;13.700;2023-04-24T00:51:11;5.95;;;3.80;;
73859;SDS011;62197;51.632;13.700;2023-04-24T00:53:37;5.70;;;3.30;;
73859;SDS011;62197;51.632;13.700;2023-04-24T00:56:02;5.15;;;3.70;;
73859;SDS011;62197;51.632;13.700;2023-04-24T00:58:29;4.68;;;3.67;;
73859;SDS011;62197;51.632;13.700;2023-04-24T01:00:56;5.60;;;3.70;;
73859;SDS011;62197;51.632;13.700;2023-04-24T01:03:22;6.28;;;4.30;;
73859;SDS011;62197;51.632;13.700;2023-04-24T01:05:51;6.82;;;4.10;;
73859;SDS011;62197;51.632;13.700;2023-04-24T01:08:17;7.40;;;4.95;;
73859;SDS011;62197;51.632;13.700;2023-04-24T01:10:44;6.50;;;4.00;;
73859;SDS011;62197;51.632;13.700;2023-04-24T01:13:10;7.60;;;4.82;;
73859;SDS011;62197;51.632;13.700;2023-04-24T01:15:36;6.80;;;4.40;;
73859;SDS011;62197;51.632;13.700;2023-04-24T01:18:02;6.22;;;4.00;;
73859;SDS011;62197;51.632;13.700;2023-04-24T01:20:28;8.52;;;4.32;;
73859;SDS011;62197;51.632;13.700;2023-04-24T01:22:55;7.63;;;4.65;;
73859;SDS011;62197;51.632;13.700;2023-04-24T01:25:21;6.47;;;4.40;;
73859;SDS011;62197;51.632;13.700;2023-04-24T01:27:47;7.40;;;4.93;;
73859;SDS011;62197;51.632;13.700;2023-04-24T01:30:12;9.27;;;5.13;;
73859;SDS011;62197;51.632;13.700;2023-04-24T01:32:38;7.65;;;4.47;;
73859;SDS011;62197;51.632;13.700;2023-04-24T01:35:04;9.07;;;5.15;;
73859;SDS011;62197;51.632;13.700;2023-04-24T01:37:30;7.85;;;4.47;;
73859;SDS011;62197;51.632;13.700;2023-04-24T01:39:57;7.82;;;4.50;;
73859;SDS011;62197;51.632;13.700;2023-04-24T01:42:22;7.07;;;4.60;;
73859;SDS011;62197;51.632;13.700;2023-04-24T01:44:48;6.20;;;3.67;;
73859;SDS011;62197;51.632;13.700;2023-04-24T01:47:13;7.18;;;4.45;;
73859;SDS011;62197;51.632;13.700;2023-04-24T01:49:39;5.32;;;4.10;;
73859;SDS011;62197;51.632;13.700;2023-04-24T01:52:04;6.28;;;4.22;;
73859;SDS011;62197;51.632;13.700;2023-04-24T01:54:30;7.05;;;4.63;;
73859;SDS011;62197;51.632;13.700;2023-04-24T01:56:55;6.53;;;4.28;;
73859;SDS011;62197;51.632;13.700;2023-04-24T01:59:20;6.38;;;4.03;;
73859;SDS011;62197;51.632;13.700;2023-04-24T02:01:48;6.15;;;4.50;;
73859;SDS011;62197;51.632;13.700;2023-04-24T02:04:13;6.82;;;4.50;;
73859;SDS011;62197;51.632;13.700;2023-04-24T02:06:40;8.13;;;4.75;;
73859;SDS011;62197;51.632;13.700;2023-04-24T02:09:05;7.38;;;4.45;;
73859;SDS011;62197;51.632;13.700;2023-04-24T02:11:31;8.57;;;5.72;;
73859;SDS011;62197;51.632;13.700;2023-04-24T02:13:56;9.50;;;4.63;;
73859;SDS011;62197;51.632;13.700;2023-04-24T02:16:21;9.85;;;5.30;;
73859;SDS011;62197;51.632;13.700;2023-04-24T02:18:47;8.32;;;5.30;;
73859;SDS011;62197;51.632;13.700;2023-04-24T02:21:12;8.65;;;5.03;;
73859;SDS011;62197;51.632;13.700;2023-04-24T02:23:37;7.90;;;5.43;;
73859;SDS011;62197;51.632;13.700;2023-04-24T02:26:03;9.20;;;5.15;;
73859;SDS011;62197;51.632;13.700;2023-04-24T02:28:28;7.18;;;5.07;;
73859;SDS011;62197;51.632;13.700;2023-04-24T02:30:54;6.82;;;4.60;;
73859;SDS011;62197;51.632;13.700;2023-04-24T02:33:19;9.27;;;5.03;;
73859;SDS011;62197;51.632;13.700;2023-04-24T02:35:44;8.82;;;5.13;;
73859;SDS011;62197;51.632;13.700;2023-04-24T02:38:10;10.95;;;6.60;;
73859;SDS011;62197;51.632;13.700;2023-04-24T02:40:35;10.00;;;6.25;;
73859;SDS011;62197;51.632;13.700;2023-04-24T02:43:01;12.10;;;6.72;;
73859;SDS011;62197;51.632;13.700;2023-04-24T02:47:51;9.47;;;5.93;;
73859;SDS011;62197;51.632;13.700;2023-04-24T02:50:16;9.57;;;6.22;;
73859;SDS011;62197;51.632;13.700;2023-04-24T02:55:07;10.40;;;6.17;;
73859;SDS011;62197;51.632;13.700;2023-04-24T02:57:33;9.38;;;5.75;;
73859;SDS011;62197;51.632;13.700;2023-04-24T02:59:58;10.65;;;6.40;;
73859;SDS011;62197;51.632;13.700;2023-04-24T03:02:24;9.65;;;6.18;;
73859;SDS011;62197;51.632;13.700;2023-04-24T03:04:50;10.73;;;6.50;;
73859;SDS011;62197;51.632;13.700;2023-04-24T03:07:15;10.60;;;6.40;;
73859;SDS011;62197;51.632;13.700;2023-04-24T03:09:41;10.20;;;6.50;;
73859;SDS011;62197;51.632;13.700;2023-04-24T03:14:31;9.20;;;5.93;;
73859;SDS011;62197;51.632;13.700;2023-04-24T03:16:57;9.65;;;5.88;;
73859;SDS011;62197;51.632;13.700;2023-04-24T03:19:22;9.52;;;6.28;;
73859;SDS011;62197;51.632;13.700;2023-04-24T03:21:47;9.98;;;5.70;;
73859;SDS011;62197;51.632;13.700;2023-04-24T03:24:13;10.55;;;6.75;;
73859;SDS011;62197;51.632;13.700;2023-04-24T03:26:39;9.05;;;6.82;;
73859;SDS011;62197;51.632;13.700;2023-04-24T03:31:29;9.90;;;6.27;;
73859;SDS011;62197;51.632;13.700;2023-04-24T03:33:55;10.43;;;6.78;;
73859;SDS011;62197;51.632;13.700;2023-04-24T03:38:45;11.87;;;6.80;;
73859;SDS011;62197;51.632;13.700;2023-04-24T03:41:11;9.52;;;6.30;;
73859;SDS011;62197;51.632;13.700;2023-04-24T03:43:36;8.60;;;6.07;;
73859;SDS011;62197;51.632;13.700;2023-04-24T03:46:02;9.07;;;6.28;;
73859;SDS011;62197;51.632;13.700;2023-04-24T03:48:27;12.40;;;6.90;;
73859;SDS011;62197;51.632;13.700;2023-04-24T03:50:53;14.00;;;7.40;;
73859;SDS011;62197;51.632;13.700;2023-04-24T03:55:44;10.50;;;6.78;;
73859;SDS011;62197;51.632;13.700;2023-04-24T03:58:10;9.68;;;6.25;;
73859;SDS011;62197;51.632;13.700;2023-04-24T04:00:36;11.95;;;6.40;;
73859;SDS011;62197;51.632;13.700;2023-04-24T04:03:02;11.23;;;6.60;;
73859;SDS011;62197;51.632;13.700;2023-04-24T04:05:28;12.18;;;6.97;;
73859;SDS011;62197;51.632;13.700;2023-04-24T04:07:53;9.02;;;5.75;;
73859;SDS011;62197;51.632;13.700;2023-04-24T04:10:18;10.68;;;6.53;;
73859;SDS011;62197;51.632;13.700;2023-04-24T04:15:09;12.47;;;6.20;;
73859;SDS011;62197;51.632;13.700;2023-04-24T04:20:00;10.73;;;5.88;;
73859;SDS011;62197;51.632;13.700;2023-04-24T04:22:26;10.30;;;6.22;;
73859;SDS011;62197;51.632;13.700;2023-04-24T04:24:51;9.27;;;5.55;;
73859;SDS011;62197;51.632;13.700;2023-04-24T04:27:17;8.55;;;5.45;;
73859;SDS011;62197;51.632;13.700;2023-04-24T04:29:43;7.53;;;5.10;;
73859;SDS011;62197;51.632;13.700;2023-04-24T04:32:09;12.05;;;5.30;;
73859;SDS011;62197;51.632;13.700;2023-04-24T04:34:34;7.93;;;4.50;;
73859;SDS011;62197;51.632;13.700;2023-04-24T04:37:02;6.15;;;4.43;;
73859;SDS011;62197;51.632;13.700;2023-04-24T04:39:28;8.00;;;4.68;;
73859;SDS011;62197;51.632;13.700;2023-04-24T04:41:54;7.10;;;4.18;;
73859;SDS011;62197;51.632;13.700;2023-04-24T04:44:20;6.43;;;4.55;;
73859;SDS011;62197;51.632;13.700;2023-04-24T04:46:45;6.10;;;3.60;;
73859;SDS011;62197;51.632;13.700;2023-04-24T04:49:11;6.47;;;3.55;;
73859;SDS011;62197;51.632;13.700;2023-04-24T04:51:36;5.65;;;3.60;;
73859;SDS011;62197;51.632;13.700;2023-04-24T04:54:01;6.32;;;2.72;;
73859;SDS011;62197;51.632;13.700;2023-04-24T04:56:27;7.80;;;4.00;;
73859;SDS011;62197;51.632;13.700;2023-04-24T04:58:52;4.72;;;3.17;;
73859;SDS011;62197;51.632;13.700;2023-04-24T05:03:43;5.22;;;2.75;;
73859;SDS011;62197;51.632;13.700;2023-04-24T05:06:08;7.53;;;2.55;;
73859;SDS011;62197;51.632;13.700;2023-04-24T05:08:34;5.45;;;3.00;;
73859;SDS011;62197;51.632;13.700;2023-04-24T05:10:59;3.40;;;2.20;;
73859;SDS011;62197;51.632;13.700;2023-04-24T05:13:25;3.80;;;2.22;;
73859;SDS011;62197;51.632;13.700;2023-04-24T05:18:15;4.30;;;1.97;;
73859;SDS011;62197;51.632;13.700;2023-04-24T05:20:41;3.80;;;1.77;;
73859;SDS011;62197;51.632;13.700;2023-04-24T05:23:08;2.20;;;1.40;;
73859;SDS011;62197;51.632;13.700;2023-04-24T05:25:34;3.22;;;1.83;;
73859;SDS011;62197;51.632;13.700;2023-04-24T05:28:00;2.90;;;1.83;;
73859;SDS011;62197;51.632;13.700;2023-04-24T05:30:26;4.15;;;1.75;;
73859;SDS011;62197;51.632;13.700;2023-04-24T05:32:52;3.05;;;1.58;;
73859;SDS011;62197;51.632;13.700;2023-04-24T05:35:17;2.22;;;1.75;;
73859;SDS011;62197;51.632;13.700;2023-04-24T05:37:43;3.35;;;1.40;;
73859;SDS011;62197;51.632;13.700;2023-04-24T05:40:09;1.75;;;1.00;;
73859;SDS011;62197;51.632;13.700;2023-04-24T05:42:36;2.03;;;1.30;;
73859;SDS011;62197;51.632;13.700;2023-04-24T05:45:01;2.13;;;1.10;;
73859;SDS011;62197;51.632;13.700;2023-04-24T05:47:26;3.05;;;1.05;;
73859;SDS011;62197;51.632;13.700;2023-04-24T05:49:52;1.50;;;0.80;;
73859;SDS011;62197;51.632;13.700;2023-04-24T05:52:18;2.20;;;1.02;;
73859;SDS011;62197;51.632;13.700;2023-04-24T05:54:43;3.97;;;1.30;;
73859;SDS011;62197;51.632;13.700;2023-04-24T05:57:08;1.42;;;0.82;;
73859;SDS011;62197;51.632;13.700;2023-04-24T05:59:36;0.82;;;0.63;;
73859;SDS011;62197;51.632;13.700;2023-04-24T06:02:03;1.70;;;0.85;;
73859;SDS011;62197;51.632;13.700;2023-04-24T06:04:29;1.60;;;0.80;;
73859;SDS011;62197;51.632;13.700;2023-04-24T06:06:54;1.00;;;0.85;;
73859;SDS011;62197;51.632;13.700;2023-04-24T06:09:24;1.63;;;0.60;;
73859;SDS011;62197;51.632;13.700;2023-04-24T06:11:49;1.13;;;0.80;;
73859;SDS011;62197;51.632;13.700;2023-04-24T06:14:17;0.90;;;0.70;;
73859;SDS011;62197;51.632;13.700;2023-04-24T06:16:43;1.23;;;0.82;;
73859;SDS011;62197;51.632;13.700;2023-04-24T06:19:08;2.35;;;0.75;;
73859;SDS011;62197;51.632;13.700;2023-04-24T06:21:34;1.10;;;0.50;;
73859;SDS011;62197;51.632;13.700;2023-04-24T06:23:59;1.35;;;0.85;;
73859;SDS011;62197;51.632;13.700;2023-04-24T06:26:24;2.03;;;0.73;;
73859;SDS011;62197;51.632;13.700;2023-04-24T06:28:51;3.67;;;0.70;;
73859;SDS011;62197;51.632;13.700;2023-04-24T06:31:18;1.55;;;0.73;;
73859;SDS011;62197;51.632;13.700;2023-04-24T06:33:44;1.10;;;0.60;;
73859;SDS011;62197;51.632;13.700;2023-04-24T06:36:10;1.77;;;0.60;;
73859;SDS011;62197;51.632;13.700;2023-04-24T06:38:35;4.45;;;0.80;;
73859;SDS011;62197;51.632;13.700;2023-04-24T06:41:01;1.60;;;0.88;;
73859;SDS011;62197;51.632;13.700;2023-04-24T06:43:26;1.33;;;0.90;;
73859;SDS011;62197;51.632;13.700;2023-04-24T06:45:51;2.45;;;0.80;;
73859;SDS011;62197;51.632;13.700;2023-04-24T06:48:17;1.33;;;0.77;;
73859;SDS011;62197;51.632;13.700;2023-04-24T06:50:42;0.90;;;0.70;;
73859;SDS011;62197;51.632;13.700;2023-04-24T06:53:07;7.88;;;0.98;;
73859;SDS011;62197;51.632;13.700;2023-04-24T06:55:35;2.75;;;0.93;;
73859;SDS011;62197;51.632;13.700;2023-04-24T06:58:00;1.90;;;0.90;;
73859;SDS011;62197;51.632;13.700;2023-04-24T07:00:26;1.20;;;0.57;;
73859;SDS011;62197;51.632;13.700;2023-04-24T07:02:51;0.90;;;0.70;;
73859;SDS011;62197;51.632;13.700;2023-04-24T07:05:17;2.35;;;0.80;;
73859;SDS011;62197;51.632;13.700;2023-04-24T07:07:45;2.63;;;0.70;;
73859;SDS011;62197;51.632;13.700;2023-04-24T07:10:11;2.95;;;1.05;;
73859;SDS011;62197;51.632;13.700;2023-04-24T07:12:37;1.08;;;0.50;;
73859;SDS011;62197;51.632;13.700;2023-04-24T07:15:02;2.33;;;0.63;;
73859;SDS011;62197;51.632;13.700;2023-04-24T07:17:28;1.20;;;0.70;;
73859;SDS011;62197;51.632;13.700;2023-04-24T07:19:53;1.38;;;0.60;;
73859;SDS011;62197;51.632;13.700;2023-04-24T07:22:18;1.30;;;0.73;;
73859;SDS011;62197;51.632;13.700;2023-04-24T07:24:44;3.00;;;0.70;;
73859;SDS011;62197;51.632;13.700;2023-04-24T07:27:09;1.30;;;0.50;;
73859;SDS011;62197;51.632;13.700;2023-04-24T07:29:35;0.75;;;0.70;;
73859;SDS011;62197;51.632;13.700;2023-04-24T07:32:00;1.67;;;0.82;;
73859;SDS011;62197;51.632;13.700;2023-04-24T07:34:25;2.22;;;0.70;;
73859;SDS011;62197;51.632;13.700;2023-04-24T07:36:51;1.23;;;0.50;;
73859;SDS011;62197;51.632;13.700;2023-04-24T07:39:16;2.40;;;0.65;;
73859;SDS011;62197;51.632;13.700;2023-04-24T07:41:42;1.83;;;0.70;;
73859;SDS011;62197;51.632;13.700;2023-04-24T07:44:07;1.13;;;0.70;;
73859;SDS011;62197;51.632;13.700;2023-04-24T07:46:33;1.73;;;0.38;;
73859;SDS011;62197;51.632;13.700;2023-04-24T07:48:58;1.75;;;0.80;;
73859;SDS011;62197;51.632;13.700;2023-04-24T07:51:25;0.98;;;0.60;;
73859;SDS011;62197;51.632;13.700;2023-04-24T07:53:52;2.10;;;0.60;;
73859;SDS011;62197;51.632;13.700;2023-04-24T07:56:17;1.05;;;0.60;;
73859;SDS011;62197;51.632;13.700;2023-04-24T07:58:43;2.25;;;0.63;;
73859;SDS011;62197;51.632;13.700;2023-04-24T08:01:08;0.93;;;0.50;;
73859;SDS011;62197;51.632;13.700;2023-04-24T08:03:33;0.70;;;0.40;;
73859;SDS011;62197;51.632;13.700;2023-04-24T08:05:59;1.70;;;0.65;;
73859;SDS011;62197;51.632;13.700;2023-04-24T08:08:25;1.40;;;0.40;;
73859;SDS011;62197;51.632;13.700;2023-04-24T08:10:50;0.52;;;0.20;;
73859;SDS011;62197;51.632;13.700;2023-04-24T08:13:15;1.02;;;0.40;;
73859;SDS011;62197;51.632;13.700;2023-04-24T08:15:41;0.73;;;0.30;;
73859;SDS011;62197;51.632;13.700;2023-04-24T08:18:06;0.57;;;0.30;;
73859;SDS011;62197;51.632;13.700;2023-04-24T08:20:32;1.58;;;0.30;;
73859;SDS011;62197;51.632;13.700;2023-04-24T08:22:57;1.83;;;0.60;;
73859;SDS011;62197;51.632;13.700;2023-04-24T08:25:22;2.97;;;0.43;;
73859;SDS011;62197;51.632;13.700;2023-04-24T08:27:49;0.47;;;0.47;;
73859;SDS011;62197;51.632;13.700;2023-04-24T08:30:15;2.55;;;0.40;;
73859;SDS011;62197;51.632;13.700;2023-04-24T08:32:40;1.55;;;0.50;;
73859;SDS011;62197;51.632;13.700;2023-04-24T08:35:06;1.15;;;0.45;;
73859;SDS011;62197;51.632;13.700;2023-04-24T08:37:34;3.40;;;0.50;;
73859;SDS011;62197;51.632;13.700;2023-04-24T08:39:59;1.00;;;0.30;;
73859;SDS011;62197;51.632;13.700;2023-04-24T08:42:25;1.05;;;0.40;;
73859;SDS011;62197;51.632;13.700;2023-04-24T08:44:53;1.42;;;0.70;;
73859;SDS011;62197;51.632;13.700;2023-04-24T08:47:19;1.42;;;0.30;;
73859;SDS011;62197;51.632;13.700;2023-04-24T08:49:46;1.88;;;0.38;;
73859;SDS011;62197;51.632;13.700;2023-04-24T08:52:13;1.30;;;0.40;;
73859;SDS011;62197;51.632;13.700;2023-04-24T08:54:38;1.92;;;0.47;;
73859;SDS011;62197;51.632;13.700;2023-04-24T08:57:04;0.77;;;0.50;;
73859;SDS011;62197;51.632;13.700;2023-04-24T08:59:32;0.57;;;0.43;;
73859;SDS011;62197;51.632;13.700;2023-04-24T09:01:59;2.85;;;0.40;;
73859;SDS011;62197;51.632;13.700;2023-04-24T09:04:24;1.77;;;0.50;;
73859;SDS011;62197;51.632;13.700;2023-04-24T09:06:51;1.02;;;0.50;;
73859;SDS011;62197;51.632;13.700;2023-04-24T09:09:20;0.90;;;0.50;;
73859;SDS011;62197;51.632;13.700;2023-04-24T09:11:46;1.35;;;0.50;;
73859;SDS011;62197;51.632;13.700;2023-04-24T09:14:11;1.67;;;0.40;;
73859;SDS011;62197;51.632;13.700;2023-04-24T09:16:38;0.77;;;0.43;;
73859;SDS011;62197;51.632;13.700;2023-04-24T09:19:03;1.70;;;0.65;;
73859;SDS011;62197;51.632;13.700;2023-04-24T09:21:35;0.35;;;0.25;;
73859;SDS011;62197;51.632;13.700;2023-04-24T09:26:29;0.70;;;0.30;;
73859;SDS011;62197;51.632;13.700;2023-04-24T09:28:56;2.50;;;0.43;;
73859;SDS011;62197;51.632;13.700;2023-04-24T09:31:22;1.58;;;0.45;;
73859;SDS011;62197;51.632;13.700;2023-04-24T09:34:05;0.40;;;0.30;;
73859;SDS011;62197;51.632;13.700;2023-04-24T09:36:34;1.20;;;0.43;;
73859;SDS011;62197;51.632;13.700;2023-04-24T09:39:04;1.67;;;0.30;;
73859;SDS011;62197;51.632;13.700;2023-04-24T09:41:33;1.65;;;0.35;;
73859;SDS011;62197;51.632;13.700;2023-04-24T09:44:10;1.27;;;0.47;;
73859;SDS011;62197;51.632;13.700;2023-04-24T09:46:37;1.15;;;0.35;;
73859;SDS011;62197;51.632;13.700;2023-04-24T09:49:07;0.52;;;0.40;;
73859;SDS011;62197;51.632;13.700;2023-04-24T09:51:38;0.93;;;0.40;;
73859;SDS011;62197;51.632;13.700;2023-04-24T09:54:13;0.82;;;0.38;;
73859;SDS011;62197;51.632;13.700;2023-04-24T09:56:44;1.25;;;0.60;;
73859;SDS011;62197;51.632;13.700;2023-04-24T09:59:10;0.82;;;0.30;;
73859;SDS011;62197;51.632;13.700;2023-04-24T10:01:36;1.38;;;0.40;;
73859;SDS011;62197;51.632;13.700;2023-04-24T10:04:03;0.93;;;0.47;;
73859;SDS011;62197;51.632;13.700;2023-04-24T10:06:35;0.50;;;0.30;;
73859;SDS011;62197;51.632;13.700;2023-04-24T10:09:01;1.42;;;0.65;;
73859;SDS011;62197;51.632;13.700;2023-04-24T10:11:26;0.52;;;0.40;;
73859;SDS011;62197;51.632;13.700;2023-04-24T10:13:52;0.85;;;0.50;;
73859;SDS011;62197;51.632;13.700;2023-04-24T10:16:18;0.50;;;0.40;;
73859;SDS011;62197;51.632;13.700;2023-04-24T10:18:46;0.77;;;0.30;;
73859;SDS011;62197;51.632;13.700;2023-04-24T10:21:13;1.33;;;0.60;;
73859;SDS011;62197;51.632;13.700;2023-04-24T10:23:39;2.35;;;0.57;;
73859;SDS011;62197;51.632;13.700;2023-04-24T10:26:08;0.95;;;0.40;;
73859;SDS011;62197;51.632;13.700;2023-04-24T10:28:34;1.40;;;0.47;;
73859;SDS011;62197;51.632;13.700;2023-04-24T10:31:01;0.93;;;0.47;;
73859;SDS011;62197;51.632;13.700;2023-04-24T10:33:27;1.20;;;0.40;;
73859;SDS011;62197;51.632;13.700;2023-04-24T10:35:53;1.25;;;0.47;;
73859;SDS011;62197;51.632;13.700;2023-04-24T10:38:24;0.73;;;0.50;;
73859;SDS011;62197;51.632;13.700;2023-04-24T10:40:51;1.35;;;0.73;;
73859;SDS011;62197;51.632;13.700;2023-04-24T10:43:31;0.52;;;0.30;;
73859;SDS011;62197;51.632;13.700;2023-04-24T10:46:02;1.70;;;0.68;;
73859;SDS011;62197;51.632;13.700;2023-04-24T10:48:28;3.08;;;0.60;;
73859;SDS011;62197;51.632;13.700;2023-04-24T10:50:54;1.05;;;0.65;;
73859;SDS011;62197;51.632;13.700;2023-04-24T10:53:20;1.02;;;0.43;;
73859;SDS011;62197;51.632;13.700;2023-04-24T10:58:37;2.17;;;0.70;;
73859;SDS011;62197;51.632;13.700;2023-04-24T11:01:09;1.05;;;0.40;;
73859;SDS011;62197;51.632;13.700;2023-04-24T11:03:54;0.85;;;0.30;;
73859;SDS011;62197;51.632;13.700;2023-04-24T11:06:28;0.85;;;0.40;;
73859;SDS011;62197;51.632;13.700;2023-04-24T11:09:04;0.98;;;0.50;;
73859;SDS011;62197;51.632;13.700;2023-04-24T11:11:31;0.57;;;0.40;;
73859;SDS011;62197;51.632;13.700;2023-04-24T11:16:32;1.20;;;0.50;;
73859;SDS011;62197;51.632;13.700;2023-04-24T11:21:42;0.98;;;0.30;;
73859;SDS011;62197;51.632;13.700;2023-04-24T11:29:37;1.35;;;0.40;;
73859;SDS011;62197;51.632;13.700;2023-04-24T11:37:23;1.67;;;0.40;;
73859;SDS011;62197;51.632;13.700;2023-04-24T11:39:50;2.35;;;0.60;;
73859;SDS011;62197;51.632;13.700;2023-04-24T11:42:16;1.10;;;0.47;;
73859;SDS011;62197;51.632;13.700;2023-04-24T11:44:43;0.65;;;0.60;;
73859;SDS011;62197;51.632;13.700;2023-04-24T11:47:08;0.30;;;0.30;;
73859;SDS011;62197;51.632;13.700;2023-04-24T11:49:36;1.30;;;0.60;;
73859;SDS011;62197;51.632;13.700;2023-04-24T11:52:01;2.55;;;0.30;;
73859;SDS011;62197;51.632;13.700;2023-04-24T11:54:27;0.40;;;0.30;;
73859;SDS011;62197;51.632;13.700;2023-04-24T11:56:53;1.17;;;0.40;;
73859;SDS011;62197;51.632;13.700;2023-04-24T11:59:18;1.27;;;0.32;;
73859;SDS011;62197;51.632;13.700;2023-04-24T12:01:46;1.13;;;0.30;;
73859;SDS011;62197;51.632;13.700;2023-04-24T12:04:13;0.95;;;0.20;;
73859;SDS011;62197;51.632;13.700;2023-04-24T12:06:40;1.10;;;0.40;;
73859;SDS011;62197;51.632;13.700;2023-04-24T12:09:23;0.80;;;0.50;;
73859;SDS011;62197;51.632;13.700;2023-04-24T12:11:57;0.57;;;0.30;;
73859;SDS011;62197;51.632;13.700;2023-04-24T12:14:23;1.42;;;0.60;;
73859;SDS011;62197;51.632;13.700;2023-04-24T12:16:49;1.23;;;0.40;;
73859;SDS011;62197;51.632;13.700;2023-04-24T12:19:20;2.03;;;0.55;;
73859;SDS011;62197;51.632;13.700;2023-04-24T12:21:58;3.33;;;0.75;;
73859;SDS011;62197;51.632;13.700;2023-04-24T12:24:28;0.45;;;0.25;;
73859;SDS011;62197;51.632;13.700;2023-04-24T12:26:54;0.95;;;0.32;;
73859;SDS011;62197;51.632;13.700;2023-04-24T12:29:20;1.33;;;0.40;;
73859;SDS011;62197;51.632;13.700;2023-04-24T12:31:45;3.95;;;0.50;;
73859;SDS011;62197;51.632;13.700;2023-04-24T12:34:18;1.00;;;0.50;;
73859;SDS011;62197;51.632;13.700;2023-04-24T12:36:47;1.33;;;0.50;;
73859;SDS011;62197;51.632;13.700;2023-04-24T12:39:16;1.23;;;0.60;;
73859;SDS011;62197;51.632;13.700;2023-04-24T12:41:50;0.95;;;0.45;;
73859;SDS011;62197;51.632;13.700;2023-04-24T12:44:32;1.30;;;0.40;;
73859;SDS011;62197;51.632;13.700;2023-04-24T12:46:59;2.15;;;0.60;;
73859;SDS011;62197;51.632;13.700;2023-04-24T12:49:25;4.20;;;1.00;;
73859;SDS011;62197;51.632;13.700;2023-04-24T12:51:50;2.83;;;0.63;;
73859;SDS011;62197;51.632;13.700;2023-04-24T12:54:16;1.92;;;0.50;;
73859;SDS011;62197;51.632;13.700;2023-04-24T12:56:41;3.00;;;0.68;;
73859;SDS011;62197;51.632;13.700;2023-04-24T12:59:06;1.48;;;0.73;;
73859;SDS011;62197;51.632;13.700;2023-04-24T13:01:32;1.38;;;0.65;;
73859;SDS011;62197;51.632;13.700;2023-04-24T13:03:57;2.28;;;0.75;;
73859;SDS011;62197;51.632;13.700;2023-04-24T13:06:23;0.85;;;0.60;;
73859;SDS011;62197;51.632;13.700;2023-04-24T13:08:48;0.98;;;0.55;;
73859;SDS011;62197;51.632;13.700;2023-04-24T13:11:13;1.35;;;0.68;;
73859;SDS011;62197;51.632;13.700;2023-04-24T13:13:39;1.00;;;0.52;;
73859;SDS011;62197;51.632;13.700;2023-04-24T13:16:04;1.00;;;0.52;;
73859;SDS011;62197;51.632;13.700;2023-04-24T13:18:30;1.02;;;0.70;;
73859;SDS011;62197;51.632;13.700;2023-04-24T13:20:55;2.40;;;0.60;;
73859;SDS011;62197;51.632;13.700;2023-04-24T13:23:20;1.48;;;0.57;;
73859;SDS011;62197;51.632;13.700;2023-04-24T13:25:47;1.17;;;0.55;;
73859;SDS011;62197;51.632;13.700;2023-04-24T13:28:13;0.90;;;0.50;;
73859;SDS011;62197;51.632;13.700;2023-04-24T13:30:38;0.73;;;0.50;;
73859;SDS011;62197;51.632;13.700;2023-04-24T13:33:03;2.55;;;0.52;;
73859;SDS011;62197;51.632;13.700;2023-04-24T13:35:29;1.08;;;0.60;;
73859;SDS011;62197;51.632;13.700;2023-04-24T13:37:54;1.52;;;0.50;;
73859;SDS011;62197;51.632;13.700;2023-04-24T13:40:19;0.68;;;0.50;;
73859;SDS011;62197;51.632;13.700;2023-04-24T13:42:45;1.80;;;0.50;;
73859;SDS011;62197;51.632;13.700;2023-04-24T13:45:10;0.80;;;0.50;;
73859;SDS011;62197;51.632;13.700;2023-04-24T13:47:36;0.47;;;0.40;;
73859;SDS011;62197;51.632;13.700;2023-04-24T13:50:01;0.90;;;0.50;;
73859;SDS011;62197;51.632;13.700;2023-04-24T13:52:27;1.58;;;0.60;;
73859;SDS011;62197;51.632;13.700;2023-04-24T13:54:52;1.05;;;0.40;;
73859;SDS011;62197;51.632;13.700;2023-04-24T13:57:17;1.73;;;0.45;;
73859;SDS011;62197;51.632;13.700;2023-04-24T13:59:43;1.33;;;0.40;;
73859;SDS011;62197;51.632;13.700;2023-04-24T14:02:08;0.68;;;0.40;;
73859;SDS011;62197;51.632;13.700;2023-04-24T14:04:33;0.82;;;0.65;;
73859;SDS011;62197;51.632;13.700;2023-04-24T14:06:59;0.63;;;0.40;;
73859;SDS011;62197;51.632;13.700;2023-04-24T14:09:24;1.67;;;0.50;;
73859;SDS011;62197;51.632;13.700;2023-04-24T14:11:49;2.10;;;0.40;;
73859;SDS011;62197;51.632;13.700;2023-04-24T14:14:16;0.95;;;0.50;;
73859;SDS011;62197;51.632;13.700;2023-04-24T14:16:42;1.20;;;0.30;;
73859;SDS011;62197;51.632;13.700;2023-04-24T14:19:07;2.45;;;0.60;;
73859;SDS011;62197;51.632;13.700;2023-04-24T14:21:32;2.17;;;0.40;;
73859;SDS011;62197;51.632;13.700;2023-04-24T14:23:58;1.05;;;0.52;;
73859;SDS011;62197;51.632;13.700;2023-04-24T14:26:23;0.57;;;0.43;;
73859;SDS011;62197;51.632;13.700;2023-04-24T14:28:49;1.10;;;0.60;;
73859;SDS011;62197;51.632;13.700;2023-04-24T14:31:14;2.45;;;0.55;;
73859;SDS011;62197;51.632;13.700;2023-04-24T14:33:40;2.00;;;0.50;;
73859;SDS011;62197;51.632;13.700;2023-04-24T14:36:05;3.45;;;0.70;;
73859;SDS011;62197;51.632;13.700;2023-04-24T14:38:31;0.40;;;0.40;;
73859;SDS011;62197;51.632;13.700;2023-04-24T14:40:56;1.15;;;0.60;;
73859;SDS011;62197;51.632;13.700;2023-04-24T14:43:22;2.03;;;0.47;;
73859;SDS011;62197;51.632;13.700;2023-04-24T14:45:47;0.85;;;0.40;;
73859;SDS011;62197;51.632;13.700;2023-04-24T14:48:13;0.52;;;0.43;;
73859;SDS011;62197;51.632;13.700;2023-04-24T14:50:38;2.83;;;0.77;;
73859;SDS011;62197;51.632;13.700;2023-04-24T14:53:03;1.52;;;0.70;;
73859;SDS011;62197;51.632;13.700;2023-04-24T14:55:29;0.75;;;0.65;;
73859;SDS011;62197;51.632;13.700;2023-04-24T14:57:54;0.57;;;0.50;;
73859;SDS011;62197;51.632;13.700;2023-04-24T15:00:20;3.17;;;0.70;;
73859;SDS011;62197;51.632;13.700;2023-04-24T15:02:48;0.88;;;0.45;;
73859;SDS011;62197;51.632;13.700;2023-04-24T15:05:13;2.00;;;0.45;;
73859;SDS011;62197;51.632;13.700;2023-04-24T15:07:39;0.90;;;0.70;;
73859;SDS011;62197;51.632;13.700;2023-04-24T15:10:06;0.85;;;0.52;;
73859;SDS011;62197;51.632;13.700;2023-04-24T15:12:32;2.53;;;0.50;;